Flying Cloud — WDG8551 — position and weather

sailwx.info

Track history (hours):
 
Tides and Currents Weather Stations Pressure Air Temp Water Temp Dewpoint Dewpoint Depression Visibility Wind Speed Wind Dir Waves Ship Positions

Flying Cloud

Owner: Boston Harbor Cruises, Boston, MA. More information available from US FCC via Universal Licensing System and Coast Guard Vessel Documentation Center.

Last reported at 2017-Oct-17 22:30 UTC. Time now 2017-Oct-17 22:36 UTC.
Position N 42°22' W 071°03'.

Length 23 m.

Type: High speed craft. MMSI: 367578710.

Date/timePositionNaut miles runAvg speedWind from/ knotsBaromVisibWave heightAir tempDewpointWater temp
2017-Oct-17 22:30N 42°22' W 071°03'713.5
2017-Oct-17 22:00N 42°18' W 070°55'713.5
2017-Oct-17 21:31N 42°22' W 071°03'1 1.8
2017-Oct-17 21:01N 42°22' W 071°02'815.7
2017-Oct-17 20:30N 42°15' W 070°55'3 6.4
2017-Oct-17 20:01N 42°18' W 070°56'612.5
2017-Oct-17 19:31N 42°22' W 071°03'911.8
2017-Oct-17 18:47N 42°15' W 070°55'1 2.1
2017-Oct-17 18:30N 42°16' W 070°55'816.3
2017-Oct-17 18:00N 42°22' W 071°03'2 3.9
2017-Oct-17 17:31N 42°21' W 071°01'710.2
2017-Oct-17 16:50N 42°15' W 070°55'514.7
2017-Oct-17 16:31N 42°19' W 070°59'4 7.5
2017-Oct-17 16:00N 42°22' W 071°03'0 0.0
2017-Oct-17 15:30N 42°22' W 071°03'0 0.4
2017-Oct-17 15:01N 42°22' W 071°03'3 6.3
2017-Oct-17 14:29N 42°20' W 070°60'2 2.4
2017-Oct-17 13:31N 42°21' W 071°02'1 1.6
2017-Oct-17 13:00N 42°22' W 071°03'612.9
2017-Oct-17 12:30N 42°18' W 070°55'713.5
2017-Oct-17 12:00N 42°22' W 071°03'713.4
2017-Oct-17 11:30N 42°18' W 070°55'2 4.3
2017-Oct-17 11:01N 42°20' W 070°57'5 9.6
2017-Oct-17 10:31N 42°22' W 071°03'713.5
2017-Oct-17 10:01N 42°18' W 070°55'3 4.6
2017-Oct-17 09:22N 42°15' W 070°55'2 5.2
2017-Oct-17 08:57N 42°15' W 070°58'2 0.3
2017-Oct-17 01:59N 42°15' W 070°55'613.0
2017-Oct-17 01:30N 42°20' W 070°60'2 4.9
2017-Oct-17 01:01N 42°22' W 071°03'816.5
2017-Oct-17 00:30N 42°15' W 070°55'4 7.8
2017-Oct-17 00:01N 42°18' W 070°58'5 9.6
2017-Oct-16 23:30N 42°22' W 071°03'816.5
2017-Oct-16 23:00N 42°16' W 070°55'2 4.7
2017-Oct-16 22:31N 42°18' W 070°55'713.5
2017-Oct-16 22:00N 42°22' W 071°03'510.7
2017-Oct-16 21:31N 42°18' W 070°58'2 4.6
2017-Oct-16 21:01N 42°16' W 070°56'815.2
2017-Oct-16 20:30N 42°22' W 071°03'510.0
2017-Oct-16 20:01N 42°18' W 070°58'3 6.6
2017-Oct-16 19:30N 42°16' W 070°55'3 5.1
2017-Oct-16 19:01N 42°18' W 070°55'612.4
2017-Oct-16 18:31N 42°22' W 071°02'813.2
2017-Oct-16 17:53N 42°15' W 070°55'3 7.9
2017-Oct-16 17:30N 42°18' W 070°55'713.5
2017-Oct-16 17:01N 42°22' W 071°03'2 5.0
2017-Oct-16 16:30N 42°20' W 071°00'6 9.9
2017-Oct-16 15:52N 42°15' W 070°55'3 8.0
2017-Oct-16 15:31N 42°18' W 070°55'713.5
2017-Oct-16 15:00N 42°22' W 071°03'0 0.0
2017-Oct-16 14:30N 42°22' W 071°03'0 0.0
2017-Oct-16 13:30N 42°22' W 071°03'713.5
2017-Oct-16 13:00N 42°18' W 070°55'713.5
2017-Oct-16 12:30N 42°22' W 071°03'713.6
2017-Oct-16 12:01N 42°18' W 070°55'713.3
2017-Oct-16 11:30N 42°22' W 071°03'713.4
2017-Oct-16 11:00N 42°18' W 070°55'3 4.8
2017-Oct-16 10:24N 42°15' W 070°55'2 0.1
2017-Oct-14 20:46N 42°15' W 070°58'2 5.3
2017-Oct-14 20:24N 42°16' W 070°56'1 0.1
2017-Oct-14 04:11N 42°15' W 070°55'0 0.0
2017-Oct-14 04:00N 42°15' W 070°55'1 1.4
2017-Oct-14 03:31N 42°16' W 070°55'815.2
2017-Oct-14 03:00N 42°22' W 071°02'611.1
2017-Oct-14 02:31N 42°19' W 070°56'3 6.7
2017-Oct-14 02:00N 42°15' W 070°55'612.7
2017-Oct-14 01:30N 42°20' W 071°00'2 3.5
2017-Oct-14 00:59N 42°22' W 071°02'812.1
2017-Oct-14 00:18N 42°15' W 070°55'414.4
2017-Oct-14 00:01N 42°19' W 070°59'4 8.1
2017-Oct-13 23:28N 42°22' W 071°03'818.3
2017-Oct-13 23:00N 42°16' W 070°55'2 4.9
2017-Oct-13 22:30N 42°18' W 070°55'713.5
2017-Oct-13 22:00N 42°22' W 071°03'815.1
2017-Oct-13 21:30N 42°16' W 070°56'2 3.9
2017-Oct-13 21:00N 42°18' W 070°55'713.4
2017-Oct-13 20:30N 42°22' W 071°03'713.4
2017-Oct-13 20:01N 42°17' W 070°57'1 2.9
2017-Oct-13 19:30N 42°16' W 070°55'4 7.2
2017-Oct-13 19:01N 42°19' W 070°57'5 9.4
2017-Oct-13 18:31N 42°21' W 071°02'815.5
2017-Oct-13 17:59N 42°15' W 070°55'3 6.1
2017-Oct-13 17:31N 42°18' W 070°55'713.5
2017-Oct-13 17:00N 42°22' W 071°03'2 3.5
2017-Oct-13 16:31N 42°21' W 071°01'714.0
2017-Oct-13 16:01N 42°15' W 070°55'3 5.8
2017-Oct-13 15:31N 42°18' W 070°55'713.4
2017-Oct-13 15:01N 42°22' W 071°03'0 0.1
2017-Oct-13 14:31N 42°22' W 071°03'0 0.0
2017-Oct-13 14:01N 42°22' W 071°03'2 4.7
2017-Oct-13 13:31N 42°20' W 071°00'6 0.5
2017-Oct-13 02:19N 42°15' W 070°58'2 7.4
2017-Oct-13 02:00N 42°15' W 070°55'612.0
2017-Oct-13 01:31N 42°20' W 070°59'3 5.6
2017-Oct-13 01:00N 42°22' W 071°03'811.9
2017-Oct-13 00:18N 42°15' W 070°55'413.8
2017-Oct-13 00:01N 42°18' W 070°59'5 9.4
2017-Oct-12 23:30N 42°22' W 071°03'816.3
2017-Oct-12 23:00N 42°16' W 070°55'2 5.1
2017-Oct-12 22:31N 42°18' W 070°55'713.5
2017-Oct-12 22:00N 42°22' W 071°03'510.5
2017-Oct-12 21:31N 42°18' W 070°58'2 3.8
2017-Oct-12 21:01N 42°17' W 070°56'713.9
2017-Oct-12 20:30N 42°22' W 071°03'5 9.0
2017-Oct-12 20:00N 42°18' W 070°59'4 7.6
2017-Oct-12 19:30N 42°16' W 070°55'4 7.1
2017-Oct-12 19:01N 42°19' W 070°57'510.2
2017-Oct-12 18:30N 42°22' W 071°03'8 6.8
2017-Oct-12 17:17N 42°15' W 070°55'0 0.1
2017-Oct-12 17:00N 42°15' W 070°55'1 1.0
2017-Oct-12 16:30N 42°16' W 070°55'917.1
2017-Oct-12 16:00N 42°22' W 071°03'1 1.5
2017-Oct-12 15:30N 42°23' W 071°03'0 0.0
2017-Oct-12 15:00N 42°23' W 071°03'0 0.0
2017-Oct-12 14:30N 42°23' W 071°03'0 0.0
2017-Oct-12 14:00N 42°23' W 071°03'0 0.0
2017-Oct-12 13:30N 42°23' W 071°03'0 0.0
2017-Oct-12 13:00N 42°23' W 071°03'0 0.0
2017-Oct-12 12:30N 42°23' W 071°03'3 5.5
2017-Oct-12 12:01N 42°21' W 071°01'6 0.4
2017-Oct-11 21:17N 42°15' W 070°58'0 0.0
2017-Oct-11 20:59N 42°15' W 070°58'0 0.0
2017-Oct-11 20:02N 42°15' W 070°58'0 0.1
2017-Oct-11 19:58N 42°15' W 070°58'1 1.2
2017-Oct-11 19:03N 42°15' W 070°57'114.5
2017-Oct-11 18:59N 42°16' W 070°56'1 1.9
2017-Oct-11 18:31N 42°15' W 070°55'917.0
2017-Oct-11 18:00N 42°22' W 071°03'2 3.3
2017-Oct-11 17:31N 42°21' W 071°01'714.1
2017-Oct-11 17:00N 42°15' W 070°55'8 0.5
2017-Oct-11 00:01N 42°22' W 071°02'811.8
2017-Oct-10 23:20N 42°15' W 070°55'310.1
2017-Oct-10 23:00N 42°19' W 070°56'612.5
2017-Oct-10 22:31N 42°22' W 071°03'713.4
2017-Oct-10 22:00N 42°18' W 070°55'713.5
2017-Oct-10 21:30N 42°22' W 071°03'1 2.0
2017-Oct-10 21:00N 42°22' W 071°02'815.0
2017-Oct-10 20:29N 42°15' W 070°55'4 9.2
2017-Oct-10 20:00N 42°19' W 070°57'4 8.9
2017-Oct-10 19:30N 42°21' W 071°02'8 9.7
2017-Oct-10 18:41N 42°15' W 070°55'0 1.9
2017-Oct-10 18:30N 42°16' W 070°55'816.9
2017-Oct-10 18:00N 42°22' W 071°03'2 3.2
2017-Oct-10 17:31N 42°21' W 071°01'714.2
2017-Oct-10 17:00N 42°15' W 070°55'510.2
2017-Oct-10 16:31N 42°19' W 070°60'4 6.8
2017-Oct-10 15:59N 42°22' W 071°03'0 0.0
2017-Oct-10 15:30N 42°22' W 071°03'0 0.0
2017-Oct-10 15:00N 42°22' W 071°03'9 8.6
2017-Oct-10 14:00N 42°15' W 070°55'510.2
2017-Oct-10 13:30N 42°19' W 070°60'3 6.5
2017-Oct-10 13:00N 42°22' W 071°02'612.8
2017-Oct-10 12:30N 42°18' W 070°55'713.6
2017-Oct-10 12:01N 42°22' W 071°03'713.5
2017-Oct-10 11:30N 42°18' W 070°55'0 0.7
2017-Oct-10 11:01N 42°18' W 070°56'612.7
2017-Oct-10 10:31N 42°22' W 071°03'713.4
2017-Oct-10 10:00N 42°18' W 070°55'3 4.8
2017-Oct-10 09:24N 42°15' W 070°55'0 0.0
2017-Oct-10 02:29N 42°15' W 070°55'816.7
2017-Oct-10 02:00N 42°22' W 071°02'1 1.6
2017-Oct-10 01:31N 42°22' W 071°03'914.4
2017-Oct-10 00:55N 42°15' W 070°55'511.8
2017-Oct-10 00:31N 42°20' W 070°57'4 7.8
2017-Oct-10 00:01N 42°22' W 071°02'816.0
2017-Oct-09 23:31N 42°15' W 070°55'3 5.8
2017-Oct-09 23:01N 42°18' W 070°55'713.1
2017-Oct-09 22:30N 42°22' W 071°03'713.5
2017-Oct-09 22:00N 42°18' W 070°55'713.5
2017-Oct-09 21:30N 42°22' W 071°03'1 1.9
2017-Oct-09 21:01N 42°22' W 071°02'812.3
2017-Oct-09 20:21N 42°15' W 070°55'3 9.8
2017-Oct-09 20:01N 42°19' W 070°56'611.9
2017-Oct-09 19:30N 42°22' W 071°03'9 9.0
2017-Oct-09 18:34N 42°15' W 070°55'0 6.1
2017-Oct-09 18:30N 42°16' W 070°55'816.8
2017-Oct-09 18:00N 42°22' W 071°03'2 3.6
2017-Oct-09 17:31N 42°21' W 071°01'7 9.7
2017-Oct-09 16:48N 42°15' W 070°55'516.7
2017-Oct-09 16:31N 42°19' W 070°59'4 7.7
2017-Oct-09 16:01N 42°22' W 071°03'0 0.0
2017-Oct-09 15:31N 42°22' W 071°03'0 0.4
2017-Oct-09 15:00N 42°22' W 071°03'4 7.3
2017-Oct-09 14:31N 42°20' W 070°58'5 9.0
2017-Oct-09 13:55N 42°15' W 070°55'717.8
2017-Oct-09 13:30N 42°21' W 071°01'1 2.2
2017-Oct-09 13:00N 42°22' W 071°02'611.9
2017-Oct-09 12:30N 42°18' W 070°56'612.7
2017-Oct-09 12:00N 42°22' W 071°03'713.5
2017-Oct-09 11:31N 42°18' W 070°55'3 5.1
2017-Oct-09 11:01N 42°20' W 070°57'4 8.7
2017-Oct-09 10:30N 42°22' W 071°03'713.6
2017-Oct-09 10:01N 42°18' W 070°55'3 5.4
2017-Oct-09 09:30N 42°15' W 070°55'2 0.3
2017-Oct-09 01:51N 42°15' W 070°58'2 4.2
2017-Oct-09 01:19N 42°15' W 070°55'515.7
2017-Oct-09 01:01N 42°19' W 070°59'3 6.7
2017-Oct-09 00:31N 42°21' W 071°02'810.2
2017-Oct-08 23:43N 42°15' W 070°55'211.3
2017-Oct-08 23:30N 42°18' W 070°55'713.7
2017-Oct-08 23:00N 42°22' W 071°03'3 6.8
2017-Oct-08 22:31N 42°20' W 070°59'611.1
2017-Oct-08 22:00N 42°15' W 070°55'2 5.0
2017-Oct-08 21:31N 42°18' W 070°55'713.6
2017-Oct-08 21:00N 42°22' W 071°03'3 6.2
2017-Oct-08 20:31N 42°20' W 070°59'611.9
2017-Oct-08 20:00N 42°15' W 070°55'2 4.2
2017-Oct-08 19:31N 42°17' W 070°56'713.8
2017-Oct-08 19:00N 42°22' W 071°03'3 6.4
2017-Oct-08 18:31N 42°20' W 070°59'6 9.2
2017-Oct-08 17:52N 42°15' W 070°55'2 4.6
2017-Oct-08 17:30N 42°17' W 070°56'714.4
2017-Oct-08 17:01N 42°22' W 071°03'510.0
2017-Oct-08 16:31N 42°20' W 070°57'4 5.2
2017-Oct-08 15:39N 42°15' W 070°55'1 9.1
2017-Oct-08 15:30N 42°16' W 070°56'715.0
2017-Oct-08 15:00N 42°22' W 071°03'4 7.0
2017-Oct-08 14:31N 42°20' W 070°59'611.3
2017-Oct-08 14:00N 42°15' W 070°55'1 1.3
2017-Oct-08 13:31N 42°16' W 070°55'816.1
2017-Oct-08 13:00N 42°22' W 071°03'3 5.9
2017-Oct-08 12:31N 42°20' W 070°59'6 6.7
2017-Oct-08 11:37N 42°15' W 070°55'1 4.8
2017-Oct-08 11:30N 42°16' W 070°55'2 0.3
2017-Oct-08 03:10N 42°15' W 070°58'215.3
2017-Oct-08 03:00N 42°16' W 070°55'611.8
2017-Oct-08 02:31N 42°20' W 071°00'2 3.0
2017-Oct-08 02:01N 42°21' W 071°02'813.3
2017-Oct-08 01:25N 42°15' W 070°55'614.0
2017-Oct-08 01:00N 42°20' W 070°60'2 4.4
2017-Oct-08 00:30N 42°21' W 071°02'815.4
2017-Oct-07 23:59N 42°15' W 070°55'2 5.1
2017-Oct-07 23:30N 42°18' W 070°55'713.7
2017-Oct-07 23:01N 42°22' W 071°03'3 5.9
2017-Oct-07 22:30N 42°20' W 070°59'  
Track history (hours):
 
Tides and Currents Weather Stations Pressure Air Temp Water Temp Dewpoint Dewpoint Depression Visibility Wind Speed Wind Dir Waves Ship Positions

Flying Cloud

Owner: Boston Harbor Cruises, Boston, MA. More information available from US FCC via Universal Licensing System and Coast Guard Vessel Documentation Center.

Last reported at 2017-Oct-17 22:30 UTC. Time now 2017-Oct-17 22:36 UTC.
Position N 42°22' W 071°03'.

Length 23 m.

Type: High speed craft. MMSI: 367578710.

Date/timePositionNaut miles runAvg speedWind from/ knotsBaromVisibWave heightAir tempDewpointWater temp
2017-Oct-17 22:30N 42°22' W 071°03'713.5
2017-Oct-17 22:00N 42°18' W 070°55'713.5
2017-Oct-17 21:31N 42°22' W 071°03'1 1.8
2017-Oct-17 21:01N 42°22' W 071°02'815.7
2017-Oct-17 20:30N 42°15' W 070°55'3 6.4
2017-Oct-17 20:01N 42°18' W 070°56'612.5
2017-Oct-17 19:31N 42°22' W 071°03'911.8
2017-Oct-17 18:47N 42°15' W 070°55'1 2.1
2017-Oct-17 18:30N 42°16' W 070°55'816.3
2017-Oct-17 18:00N 42°22' W 071°03'2 3.9
2017-Oct-17 17:31N 42°21' W 071°01'710.2
2017-Oct-17 16:50N 42°15' W 070°55'514.7
2017-Oct-17 16:31N 42°19' W 070°59'4 7.5
2017-Oct-17 16:00N 42°22' W 071°03'0 0.0
2017-Oct-17 15:30N 42°22' W 071°03'0 0.4
2017-Oct-17 15:01N 42°22' W 071°03'3 6.3
2017-Oct-17 14:29N 42°20' W 070°60'2 2.4
2017-Oct-17 13:31N 42°21' W 071°02'1 1.6
2017-Oct-17 13:00N 42°22' W 071°03'612.9
2017-Oct-17 12:30N 42°18' W 070°55'713.5
2017-Oct-17 12:00N 42°22' W 071°03'713.4
2017-Oct-17 11:30N 42°18' W 070°55'2 4.3
2017-Oct-17 11:01N 42°20' W 070°57'5 9.6
2017-Oct-17 10:31N 42°22' W 071°03'713.5
2017-Oct-17 10:01N 42°18' W 070°55'3 4.6
2017-Oct-17 09:22N 42°15' W 070°55'2 5.2
2017-Oct-17 08:57N 42°15' W 070°58'2 0.3
2017-Oct-17 01:59N 42°15' W 070°55'613.0
2017-Oct-17 01:30N 42°20' W 070°60'2 4.9
2017-Oct-17 01:01N 42°22' W 071°03'816.5
2017-Oct-17 00:30N 42°15' W 070°55'4 7.8
2017-Oct-17 00:01N 42°18' W 070°58'5 9.6
2017-Oct-16 23:30N 42°22' W 071°03'816.5
2017-Oct-16 23:00N 42°16' W 070°55'2 4.7
2017-Oct-16 22:31N 42°18' W 070°55'713.5
2017-Oct-16 22:00N 42°22' W 071°03'510.7
2017-Oct-16 21:31N 42°18' W 070°58'2 4.6
2017-Oct-16 21:01N 42°16' W 070°56'815.2
2017-Oct-16 20:30N 42°22' W 071°03'510.0
2017-Oct-16 20:01N 42°18' W 070°58'3 6.6
2017-Oct-16 19:30N 42°16' W 070°55'3 5.1
2017-Oct-16 19:01N 42°18' W 070°55'612.4
2017-Oct-16 18:31N 42°22' W 071°02'813.2
2017-Oct-16 17:53N 42°15' W 070°55'3 7.9
2017-Oct-16 17:30N 42°18' W 070°55'713.5
2017-Oct-16 17:01N 42°22' W 071°03'2 5.0
2017-Oct-16 16:30N 42°20' W 071°00'6 9.9
2017-Oct-16 15:52N 42°15' W 070°55'3 8.0
2017-Oct-16 15:31N 42°18' W 070°55'713.5
2017-Oct-16 15:00N 42°22' W 071°03'0 0.0
2017-Oct-16 14:30N 42°22' W 071°03'0 0.0
2017-Oct-16 13:30N 42°22' W 071°03'713.5
2017-Oct-16 13:00N 42°18' W 070°55'713.5
2017-Oct-16 12:30N 42°22' W 071°03'713.6
2017-Oct-16 12:01N 42°18' W 070°55'713.3
2017-Oct-16 11:30N 42°22' W 071°03'713.4
2017-Oct-16 11:00N 42°18' W 070°55'3 4.8
2017-Oct-16 10:24N 42°15' W 070°55'2 0.1
2017-Oct-14 20:46N 42°15' W 070°58'2 5.3
2017-Oct-14 20:24N 42°16' W 070°56'1 0.1
2017-Oct-14 04:11N 42°15' W 070°55'0 0.0
2017-Oct-14 04:00N 42°15' W 070°55'1 1.4
2017-Oct-14 03:31N 42°16' W 070°55'815.2
2017-Oct-14 03:00N 42°22' W 071°02'611.1
2017-Oct-14 02:31N 42°19' W 070°56'3 6.7
2017-Oct-14 02:00N 42°15' W 070°55'612.7
2017-Oct-14 01:30N 42°20' W 071°00'2 3.5
2017-Oct-14 00:59N 42°22' W 071°02'812.1
2017-Oct-14 00:18N 42°15' W 070°55'414.4
2017-Oct-14 00:01N 42°19' W 070°59'4 8.1
2017-Oct-13 23:28N 42°22' W 071°03'818.3
2017-Oct-13 23:00N 42°16' W 070°55'2 4.9
2017-Oct-13 22:30N 42°18' W 070°55'713.5
2017-Oct-13 22:00N 42°22' W 071°03'815.1
2017-Oct-13 21:30N 42°16' W 070°56'2 3.9
2017-Oct-13 21:00N 42°18' W 070°55'713.4
2017-Oct-13 20:30N 42°22' W 071°03'713.4
2017-Oct-13 20:01N 42°17' W 070°57'1 2.9
2017-Oct-13 19:30N 42°16' W 070°55'4 7.2
2017-Oct-13 19:01N 42°19' W 070°57'5 9.4
2017-Oct-13 18:31N 42°21' W 071°02'815.5
2017-Oct-13 17:59N 42°15' W 070°55'3 6.1
2017-Oct-13 17:31N 42°18' W 070°55'713.5
2017-Oct-13 17:00N 42°22' W 071°03'2 3.5
2017-Oct-13 16:31N 42°21' W 071°01'714.0
2017-Oct-13 16:01N 42°15' W 070°55'3 5.8
2017-Oct-13 15:31N 42°18' W 070°55'713.4
2017-Oct-13 15:01N 42°22' W 071°03'0 0.1
2017-Oct-13 14:31N 42°22' W 071°03'0 0.0
2017-Oct-13 14:01N 42°22' W 071°03'2 4.7
2017-Oct-13 13:31N 42°20' W 071°00'6 0.5
2017-Oct-13 02:19N 42°15' W 070°58'2 7.4
2017-Oct-13 02:00N 42°15' W 070°55'612.0
2017-Oct-13 01:31N 42°20' W 070°59'3 5.6
2017-Oct-13 01:00N 42°22' W 071°03'811.9
2017-Oct-13 00:18N 42°15' W 070°55'413.8
2017-Oct-13 00:01N 42°18' W 070°59'5 9.4
2017-Oct-12 23:30N 42°22' W 071°03'816.3
2017-Oct-12 23:00N 42°16' W 070°55'2 5.1
2017-Oct-12 22:31N 42°18' W 070°55'713.5
2017-Oct-12 22:00N 42°22' W 071°03'510.5
2017-Oct-12 21:31N 42°18' W 070°58'2 3.8
2017-Oct-12 21:01N 42°17' W 070°56'713.9
2017-Oct-12 20:30N 42°22' W 071°03'5 9.0
2017-Oct-12 20:00N 42°18' W 070°59'4 7.6
2017-Oct-12 19:30N 42°16' W 070°55'4 7.1
2017-Oct-12 19:01N 42°19' W 070°57'510.2
2017-Oct-12 18:30N 42°22' W 071°03'8 6.8
2017-Oct-12 17:17N 42°15' W 070°55'0 0.1
2017-Oct-12 17:00N 42°15' W 070°55'1 1.0
2017-Oct-12 16:30N 42°16' W 070°55'917.1
2017-Oct-12 16:00N 42°22' W 071°03'1 1.5
2017-Oct-12 15:30N 42°23' W 071°03'0 0.0
2017-Oct-12 15:00N 42°23' W 071°03'0 0.0
2017-Oct-12 14:30N 42°23' W 071°03'0 0.0
2017-Oct-12 14:00N 42°23' W 071°03'0 0.0
2017-Oct-12 13:30N 42°23' W 071°03'0 0.0
2017-Oct-12 13:00N 42°23' W 071°03'0 0.0
2017-Oct-12 12:30N 42°23' W 071°03'3 5.5
2017-Oct-12 12:01N 42°21' W 071°01'6 0.4
2017-Oct-11 21:17N 42°15' W 070°58'0 0.0
2017-Oct-11 20:59N 42°15' W 070°58'0 0.0
2017-Oct-11 20:02N 42°15' W 070°58'0 0.1
2017-Oct-11 19:58N 42°15' W 070°58'1 1.2
2017-Oct-11 19:03N 42°15' W 070°57'114.5
2017-Oct-11 18:59N 42°16' W 070°56'1 1.9
2017-Oct-11 18:31N 42°15' W 070°55'917.0
2017-Oct-11 18:00N 42°22' W 071°03'2 3.3
2017-Oct-11 17:31N 42°21' W 071°01'714.1
2017-Oct-11 17:00N 42°15' W 070°55'8 0.5
2017-Oct-11 00:01N 42°22' W 071°02'811.8
2017-Oct-10 23:20N 42°15' W 070°55'310.1
2017-Oct-10 23:00N 42°19' W 070°56'612.5
2017-Oct-10 22:31N 42°22' W 071°03'713.4
2017-Oct-10 22:00N 42°18' W 070°55'713.5
2017-Oct-10 21:30N 42°22' W 071°03'1 2.0
2017-Oct-10 21:00N 42°22' W 071°02'815.0
2017-Oct-10 20:29N 42°15' W 070°55'4 9.2
2017-Oct-10 20:00N 42°19' W 070°57'4 8.9
2017-Oct-10 19:30N 42°21' W 071°02'8 9.7
2017-Oct-10 18:41N 42°15' W 070°55'0 1.9
2017-Oct-10 18:30N 42°16' W 070°55'816.9
2017-Oct-10 18:00N 42°22' W 071°03'2 3.2
2017-Oct-10 17:31N 42°21' W 071°01'714.2
2017-Oct-10 17:00N 42°15' W 070°55'510.2
2017-Oct-10 16:31N 42°19' W 070°60'4 6.8
2017-Oct-10 15:59N 42°22' W 071°03'0 0.0
2017-Oct-10 15:30N 42°22' W 071°03'0 0.0
2017-Oct-10 15:00N 42°22' W 071°03'9 8.6
2017-Oct-10 14:00N 42°15' W 070°55'510.2
2017-Oct-10 13:30N 42°19' W 070°60'3 6.5
2017-Oct-10 13:00N 42°22' W 071°02'612.8
2017-Oct-10 12:30N 42°18' W 070°55'713.6
2017-Oct-10 12:01N 42°22' W 071°03'713.5
2017-Oct-10 11:30N 42°18' W 070°55'0 0.7
2017-Oct-10 11:01N 42°18' W 070°56'612.7
2017-Oct-10 10:31N 42°22' W 071°03'713.4
2017-Oct-10 10:00N 42°18' W 070°55'3 4.8
2017-Oct-10 09:24N 42°15' W 070°55'0 0.0
2017-Oct-10 02:29N 42°15' W 070°55'816.7
2017-Oct-10 02:00N 42°22' W 071°02'1 1.6
2017-Oct-10 01:31N 42°22' W 071°03'914.4
2017-Oct-10 00:55N 42°15' W 070°55'511.8
2017-Oct-10 00:31N 42°20' W 070°57'4 7.8
2017-Oct-10 00:01N 42°22' W 071°02'816.0
2017-Oct-09 23:31N 42°15' W 070°55'3 5.8
2017-Oct-09 23:01N 42°18' W 070°55'713.1
2017-Oct-09 22:30N 42°22' W 071°03'713.5
2017-Oct-09 22:00N 42°18' W 070°55'713.5
2017-Oct-09 21:30N 42°22' W 071°03'1 1.9
2017-Oct-09 21:01N 42°22' W 071°02'812.3
2017-Oct-09 20:21N 42°15' W 070°55'3 9.8
2017-Oct-09 20:01N 42°19' W 070°56'611.9
2017-Oct-09 19:30N 42°22' W 071°03'9 9.0
2017-Oct-09 18:34N 42°15' W 070°55'0 6.1
2017-Oct-09 18:30N 42°16' W 070°55'816.8
2017-Oct-09 18:00N 42°22' W 071°03'2 3.6
2017-Oct-09 17:31N 42°21' W 071°01'7 9.7
2017-Oct-09 16:48N 42°15' W 070°55'516.7
2017-Oct-09 16:31N 42°19' W 070°59'4 7.7
2017-Oct-09 16:01N 42°22' W 071°03'0 0.0
2017-Oct-09 15:31N 42°22' W 071°03'0 0.4
2017-Oct-09 15:00N 42°22' W 071°03'4 7.3
2017-Oct-09 14:31N 42°20' W 070°58'5 9.0
2017-Oct-09 13:55N 42°15' W 070°55'717.8
2017-Oct-09 13:30N 42°21' W 071°01'1 2.2
2017-Oct-09 13:00N 42°22' W 071°02'611.9
2017-Oct-09 12:30N 42°18' W 070°56'612.7
2017-Oct-09 12:00N 42°22' W 071°03'713.5
2017-Oct-09 11:31N 42°18' W 070°55'3 5.1
2017-Oct-09 11:01N 42°20' W 070°57'4 8.7
2017-Oct-09 10:30N 42°22' W 071°03'713.6
2017-Oct-09 10:01N 42°18' W 070°55'3 5.4
2017-Oct-09 09:30N 42°15' W 070°55'2 0.3
2017-Oct-09 01:51N 42°15' W 070°58'2 4.2
2017-Oct-09 01:19N 42°15' W 070°55'515.7
2017-Oct-09 01:01N 42°19' W 070°59'3 6.7
2017-Oct-09 00:31N 42°21' W 071°02'810.2
2017-Oct-08 23:43N 42°15' W 070°55'211.3
2017-Oct-08 23:30N 42°18' W 070°55'713.7
2017-Oct-08 23:00N 42°22' W 071°03'3 6.8
2017-Oct-08 22:31N 42°20' W 070°59'611.1
2017-Oct-08 22:00N 42°15' W 070°55'2 5.0
2017-Oct-08 21:31N 42°18' W 070°55'713.6
2017-Oct-08 21:00N 42°22' W 071°03'3 6.2
2017-Oct-08 20:31N 42°20' W 070°59'611.9
2017-Oct-08 20:00N 42°15' W 070°55'2 4.2
2017-Oct-08 19:31N 42°17' W 070°56'713.8
2017-Oct-08 19:00N 42°22' W 071°03'3 6.4
2017-Oct-08 18:31N 42°20' W 070°59'6 9.2
2017-Oct-08 17:52N 42°15' W 070°55'2 4.6
2017-Oct-08 17:30N 42°17' W 070°56'714.4
2017-Oct-08 17:01N 42°22' W 071°03'510.0
2017-Oct-08 16:31N 42°20' W 070°57'4 5.2
2017-Oct-08 15:39N 42°15' W 070°55'1 9.1
2017-Oct-08 15:30N 42°16' W 070°56'715.0
2017-Oct-08 15:00N 42°22' W 071°03'4 7.0
2017-Oct-08 14:31N 42°20' W 070°59'611.3
2017-Oct-08 14:00N 42°15' W 070°55'1 1.3
2017-Oct-08 13:31N 42°16' W 070°55'816.1
2017-Oct-08 13:00N 42°22' W 071°03'3 5.9
2017-Oct-08 12:31N 42°20' W 070°59'6 6.7
2017-Oct-08 11:37N 42°15' W 070°55'1 4.8
2017-Oct-08 11:30N 42°16' W 070°55'2 0.3
2017-Oct-08 03:10N 42°15' W 070°58'215.3
2017-Oct-08 03:00N 42°16' W 070°55'611.8
2017-Oct-08 02:31N 42°20' W 071°00'2 3.0
2017-Oct-08 02:01N 42°21' W 071°02'813.3
2017-Oct-08 01:25N 42°15' W 070°55'614.0
2017-Oct-08 01:00N 42°20' W 070°60'2 4.4
2017-Oct-08 00:30N 42°21' W 071°02'815.4
2017-Oct-07 23:59N 42°15' W 070°55'2 5.1
2017-Oct-07 23:30N 42°18' W 070°55'713.7
2017-Oct-07 23:01N 42°22' W 071°03'3 5.9
2017-Oct-07 22:30N 42°20' W 070°59'  

Dump ship's entire track history